createdAt,value
2022-09-01T00:02:36.134Z,7.05
2022-09-01T00:05:18.585Z,6.20
2022-09-01T00:08:07.072Z,6.60
2022-09-01T00:10:50.140Z,6.68
2022-09-01T00:13:41.047Z,5.63
2022-09-01T00:16:23.582Z,6.63
2022-09-01T00:19:13.032Z,6.63
2022-09-01T00:22:03.548Z,6.50
2022-09-01T00:24:46.034Z,6.53
2022-09-01T00:27:35.730Z,6.53
2022-09-01T00:30:18.023Z,6.68
2022-09-01T00:33:13.900Z,5.95
2022-09-01T00:36:03.286Z,7.28
2022-09-01T00:38:52.045Z,6.20
2022-09-01T00:41:46.022Z,6.60
2022-09-01T00:44:36.043Z,6.70
2022-09-01T00:47:18.523Z,6.35
2022-09-01T00:50:08.264Z,6.82
2022-09-01T00:53:01.398Z,7.00
2022-09-01T00:55:45.375Z,7.07
2022-09-01T00:58:34.295Z,6.80
2022-09-01T01:01:18.665Z,7.25
2022-09-01T01:04:09.929Z,7.30
2022-09-01T01:07:10.285Z,6.00
2022-09-01T01:09:59.313Z,6.90
2022-09-01T01:12:48.059Z,7.53
2022-09-01T01:15:37.278Z,7.10
2022-09-01T01:18:23.111Z,7.75
2022-09-01T01:21:35.025Z,7.40
2022-09-01T01:24:24.236Z,7.63
2022-09-01T01:27:14.282Z,8.25
2022-09-01T01:29:58.379Z,8.70
2022-09-01T01:32:51.277Z,9.18
2022-09-01T01:35:47.012Z,8.52
2022-09-01T01:38:36.081Z,9.68
2022-09-01T01:41:22.994Z,8.98
2022-09-01T01:44:13.283Z,8.73
2022-09-01T01:46:58.577Z,8.68
2022-09-01T01:49:52.530Z,10.43
2022-09-01T01:52:35.645Z,11.60
2022-09-01T01:55:27.277Z,9.48
2022-09-01T01:58:19.496Z,10.73
2022-09-01T02:01:12.983Z,10.73
2022-09-01T02:04:00.434Z,10.80
2022-09-01T02:06:48.723Z,10.43
2022-09-01T02:09:30.929Z,11.15
2022-09-01T02:12:19.268Z,10.85
2022-09-01T02:15:03.469Z,10.68
2022-09-01T02:17:52.010Z,10.77
2022-09-01T02:20:35.550Z,10.30
2022-09-01T02:23:31.292Z,11.20
2022-09-01T02:26:17.578Z,11.93
2022-09-01T02:29:13.058Z,12.13
2022-09-01T02:32:05.278Z,12.20
2022-09-01T02:35:08.899Z,11.82
2022-09-01T02:38:06.276Z,13.00
2022-09-01T02:40:52.068Z,11.60
2022-09-01T02:43:41.264Z,11.60
2022-09-01T02:46:24.878Z,13.25
2022-09-01T02:49:16.310Z,11.07
2022-09-01T02:52:02.525Z,10.55
2022-09-01T02:54:55.032Z,11.18
2022-09-01T02:57:44.272Z,11.00
2022-09-01T03:00:38.239Z,10.82
2022-09-01T03:03:25.077Z,10.45
2022-09-01T03:06:15.752Z,11.68
2022-09-01T03:09:02.288Z,10.85
2022-09-01T03:11:56.255Z,10.20
2022-09-01T03:14:38.250Z,9.55
2022-09-01T03:17:27.158Z,10.88
2022-09-01T03:20:16.272Z,11.05
2022-09-01T03:23:06.031Z,11.23
2022-09-01T03:25:50.425Z,9.93
2022-09-01T03:28:39.041Z,10.85
2022-09-01T03:31:22.584Z,10.57
2022-09-01T03:34:14.051Z,10.02
2022-09-01T03:37:15.189Z,10.05
2022-09-01T03:40:05.313Z,11.77
2022-09-01T03:42:48.273Z,10.50
2022-09-01T03:45:31.726Z,11.52
2022-09-01T03:48:24.271Z,9.52
2022-09-01T03:51:15.417Z,9.48
2022-09-01T03:54:02.284Z,10.15
2022-09-01T03:56:44.916Z,9.88
2022-09-01T03:59:36.009Z,10.00
2022-09-01T04:02:26.087Z,8.60
2022-09-01T04:05:08.964Z,8.95
2022-09-01T04:07:58.023Z,9.05
2022-09-01T04:10:48.841Z,8.18
2022-09-01T04:13:47.073Z,9.00
2022-09-01T04:16:51.876Z,9.23
2022-09-01T04:19:47.063Z,10.10
2022-09-01T04:22:33.721Z,8.82
2022-09-01T04:25:23.248Z,8.77
2022-09-01T04:28:20.188Z,7.85
2022-09-01T04:31:15.668Z,8.60
2022-09-01T04:34:01.033Z,8.85
2022-09-01T04:36:45.723Z,8.68
2022-09-01T04:39:38.031Z,6.70
2022-09-01T04:42:31.284Z,7.50
2022-09-01T04:45:19.975Z,7.18
2022-09-01T04:48:09.285Z,6.88
2022-09-01T04:50:53.131Z,8.00
2022-09-01T04:53:48.296Z,7.75
2022-09-01T04:56:36.627Z,7.63
2022-09-01T04:59:31.283Z,6.20
2022-09-01T05:02:13.251Z,7.32
2022-09-01T05:05:03.279Z,5.25
2022-09-01T05:07:45.571Z,7.03
2022-09-01T05:13:30.422Z,7.90
2022-09-01T05:16:25.386Z,6.30
2022-09-01T05:19:08.209Z,6.07
2022-09-01T05:21:57.023Z,6.70
2022-09-01T05:24:42.320Z,5.68
2022-09-01T05:27:33.291Z,6.75
2022-09-01T05:30:17.981Z,6.07
2022-09-01T05:33:07.279Z,6.45
2022-09-01T05:35:53.242Z,6.25
2022-09-01T05:38:44.047Z,6.72
2022-09-01T05:41:29.227Z,7.10
2022-09-01T05:44:19.024Z,7.75
2022-09-01T05:47:09.694Z,7.70
2022-09-01T05:50:06.032Z,8.05
2022-09-01T05:52:49.023Z,7.00
2022-09-01T05:55:42.893Z,8.02
2022-09-01T05:58:25.836Z,8.52
2022-09-01T06:01:18.032Z,7.13
2022-09-01T06:04:06.590Z,7.40
2022-09-01T06:07:06.718Z,7.20
2022-09-01T06:09:55.322Z,8.05
2022-09-01T06:12:44.264Z,7.38
2022-09-01T06:15:33.258Z,8.00
2022-09-01T06:18:16.225Z,8.20
2022-09-01T06:21:12.278Z,8.32
2022-09-01T06:23:55.511Z,8.27
2022-09-01T06:26:48.274Z,9.90
2022-09-01T06:29:32.301Z,9.10
2022-09-01T06:32:22.304Z,9.13
2022-09-01T06:35:12.798Z,8.57
2022-09-01T06:37:56.025Z,8.65
2022-09-01T06:40:56.685Z,7.80
2022-09-01T06:43:40.570Z,9.15
2022-09-01T06:46:30.587Z,7.88
2022-09-01T06:49:12.992Z,9.27
2022-09-01T06:51:57.164Z,9.48
2022-09-01T06:54:49.251Z,10.35
2022-09-01T07:00:43.181Z,10.20
2022-09-01T07:03:33.317Z,9.77
2022-09-01T07:10:17.773Z,11.05
2022-09-01T07:13:18.040Z,10.43
2022-09-01T07:16:33.356Z,11.38
2022-09-01T07:19:48.281Z,10.60
2022-09-01T07:22:38.526Z,11.02
2022-09-01T07:26:01.407Z,11.90
2022-09-01T07:28:50.294Z,10.82
2022-09-01T07:34:50.099Z,11.15
2022-09-01T07:44:09.676Z,10.90
2022-09-01T07:51:34.221Z,9.93
2022-09-01T07:53:44.265Z,12.27
2022-09-01T07:59:29.002Z,11.02
2022-09-01T08:02:22.661Z,10.50
2022-09-01T08:05:12.266Z,10.95
2022-09-01T08:08:02.322Z,11.50
2022-09-01T08:10:49.235Z,10.40
2022-09-01T08:13:31.289Z,10.55
2022-09-01T08:16:22.346Z,9.80
2022-09-01T08:19:19.123Z,8.90
2022-09-01T08:22:25.129Z,9.85
2022-09-01T08:25:21.780Z,9.32
2022-09-01T08:28:14.033Z,8.85
2022-09-01T08:30:56.997Z,9.32
2022-09-01T08:33:46.045Z,9.30
2022-09-01T08:36:28.206Z,10.25
2022-09-01T08:39:18.256Z,8.93
2022-09-01T08:42:34.120Z,9.60
2022-09-01T08:46:02.962Z,9.57
2022-09-01T08:52:32.925Z,9.82
2022-09-01T08:55:22.239Z,8.73
2022-09-01T08:58:15.930Z,9.05
2022-09-01T09:02:02.633Z,8.43
2022-09-01T09:05:45.189Z,8.35
2022-09-01T09:08:52.125Z,8.05
2022-09-01T09:11:43.515Z,8.02
2022-09-01T09:14:53.044Z,8.88
2022-09-01T09:17:43.432Z,9.77
2022-09-01T09:20:32.322Z,9.13
2022-09-01T09:23:27.532Z,9.65
2022-09-01T09:26:21.658Z,9.50
2022-09-01T09:29:10.957Z,10.52
2022-09-01T09:32:44.936Z,9.38
2022-09-01T09:35:41.317Z,9.35
2022-09-01T09:38:33.858Z,9.65
2022-09-01T09:41:27.608Z,9.15
2022-09-01T09:44:38.321Z,9.60
2022-09-01T09:47:49.933Z,9.13
2022-09-01T09:50:35.475Z,8.98
2022-09-01T09:53:26.934Z,10.05
2022-09-01T09:56:19.700Z,8.85
2022-09-01T09:59:08.325Z,8.88
2022-09-01T10:01:54.125Z,9.10
2022-09-01T10:04:51.486Z,9.07
2022-09-01T10:07:45.355Z,8.98
2022-09-01T10:10:48.753Z,8.30
2022-09-01T10:13:40.372Z,9.13
2022-09-01T10:16:43.998Z,8.57
2022-09-01T10:19:36.627Z,8.48
2022-09-01T10:22:19.077Z,7.68
2022-09-01T10:25:10.405Z,7.93
2022-09-01T10:27:59.184Z,7.43
2022-09-01T10:30:45.206Z,6.60
2022-09-01T10:33:43.028Z,7.13
2022-09-01T10:36:32.249Z,6.70
2022-09-01T10:39:21.978Z,6.05
2022-09-01T10:42:25.904Z,6.35
2022-09-01T10:45:33.249Z,5.90
2022-09-01T10:48:33.389Z,6.78
2022-09-01T10:51:35.497Z,5.95
2022-09-01T10:54:51.841Z,6.13
2022-09-01T10:58:07.773Z,5.57
2022-09-01T11:01:40.292Z,4.95
2022-09-01T11:04:05.424Z,5.60
2022-09-01T11:07:17.877Z,5.75
2022-09-01T11:10:57.269Z,5.35
2022-09-01T11:13:56.289Z,6.20
2022-09-01T11:16:49.610Z,5.85
2022-09-01T11:19:44.128Z,5.53
2022-09-01T11:22:38.090Z,6.30
2022-09-01T11:25:45.106Z,5.40
2022-09-01T11:28:46.892Z,7.15
2022-09-01T11:31:49.304Z,6.32
2022-09-01T11:34:34.542Z,5.70
2022-09-01T11:37:28.280Z,5.00
2022-09-01T11:40:14.728Z,5.05
2022-09-01T11:43:05.088Z,4.47
2022-09-01T11:45:59.324Z,4.10
2022-09-01T11:48:53.203Z,5.47
2022-09-01T11:51:35.291Z,5.40
2022-09-01T11:54:24.161Z,4.25
2022-09-01T11:57:06.294Z,4.45
2022-09-01T11:59:55.312Z,4.47
2022-09-01T12:02:53.655Z,4.13
2022-09-01T12:05:48.279Z,4.93
2022-09-01T12:08:31.620Z,4.43
2022-09-01T12:11:28.266Z,4.68
2022-09-01T12:14:16.292Z,5.13
2022-09-01T12:17:14.258Z,4.22
2022-09-01T12:19:56.396Z,4.93
2022-09-01T12:22:45.031Z,3.80
2022-09-01T12:25:41.538Z,4.28
2022-09-01T12:28:38.968Z,4.70
2022-09-01T12:31:34.344Z,4.90
2022-09-01T12:34:41.267Z,4.60
2022-09-01T12:37:34.054Z,5.38
2022-09-01T12:40:39.632Z,5.30
2022-09-01T12:43:40.062Z,4.53
2022-09-01T12:46:55.239Z,5.03
2022-09-01T12:50:03.528Z,4.63
2022-09-01T12:53:00.330Z,4.85
2022-09-01T12:55:51.048Z,4.35
2022-09-01T12:58:34.024Z,5.35
2022-09-01T13:01:24.100Z,6.20
2022-09-01T13:04:37.606Z,5.40
2022-09-01T13:07:19.034Z,6.50
2022-09-01T13:10:01.406Z,5.55
2022-09-01T13:12:56.056Z,5.47
2022-09-01T13:15:48.306Z,5.57
2022-09-01T13:21:48.157Z,6.70
2022-09-01T13:24:31.632Z,4.90
2022-09-01T13:27:22.468Z,5.20
2022-09-01T13:30:04.678Z,5.57
2022-09-01T13:36:42.700Z,4.63
2022-09-01T13:39:12.564Z,4.97
2022-09-01T13:41:55.280Z,5.43
2022-09-01T13:44:44.116Z,5.60
2022-09-01T13:47:30.055Z,4.78
2022-09-01T13:51:14.148Z,5.55
2022-09-01T13:53:38.921Z,5.57
2022-09-01T13:56:28.283Z,6.20
2022-09-01T13:59:10.193Z,6.35
2022-09-01T14:01:58.958Z,5.32
2022-09-01T14:04:48.599Z,5.93
2022-09-01T14:07:33.550Z,6.85
2022-09-01T14:10:23.111Z,5.53
2022-09-01T14:13:06.913Z,5.97
2022-09-01T14:15:57.109Z,6.53
2022-09-01T14:18:39.696Z,6.05
2022-09-01T14:21:28.263Z,5.60
2022-09-01T14:24:10.490Z,5.80
2022-09-01T14:26:58.917Z,6.18
2022-09-01T14:32:34.345Z,6.15
2022-09-01T14:35:16.470Z,6.53
2022-09-01T14:38:06.060Z,6.75
2022-09-01T14:40:49.963Z,6.68
2022-09-01T14:43:40.368Z,6.90
2022-09-01T14:46:22.816Z,6.78
2022-09-01T14:49:12.305Z,7.15
2022-09-01T14:52:10.762Z,8.45
2022-09-01T14:55:00.531Z,8.45
2022-09-01T14:57:48.957Z,9.18
2022-09-01T15:00:39.065Z,8.68
2022-09-01T15:03:22.993Z,7.30
2022-09-01T15:06:12.040Z,7.20
2022-09-01T15:08:55.404Z,6.53
2022-09-01T15:11:45.641Z,7.25
2022-09-01T15:14:28.134Z,6.93
2022-09-01T15:17:18.285Z,6.78
2022-09-01T15:20:27.170Z,6.75
2022-09-01T15:23:18.325Z,6.90
2022-09-01T15:26:03.310Z,7.60
2022-09-01T15:28:56.237Z,7.30
2022-09-01T15:31:39.304Z,8.35
2022-09-01T15:37:11.021Z,8.52
2022-09-01T15:39:59.961Z,7.78
2022-09-01T15:42:50.203Z,7.75
2022-09-01T15:45:39.021Z,7.05
2022-09-01T15:48:21.539Z,7.90
2022-09-01T15:51:31.949Z,8.85
2022-09-01T15:54:33.308Z,10.25
2022-09-01T15:57:15.368Z,10.40
2022-09-01T16:00:05.074Z,8.55
2022-09-01T16:02:47.286Z,8.80
2022-09-01T16:05:36.310Z,8.43
2022-09-01T16:08:18.318Z,8.98
2022-09-01T16:11:08.023Z,9.05
2022-09-01T16:13:54.634Z,8.75
2022-09-01T16:17:02.637Z,8.52
2022-09-01T16:19:47.337Z,8.35
2022-09-01T16:22:52.262Z,8.63
2022-09-01T16:25:42.518Z,8.25
2022-09-01T16:28:43.911Z,9.70
2022-09-01T16:31:32.292Z,8.70
2022-09-01T16:34:30.914Z,9.10
2022-09-01T16:38:16.472Z,7.55
2022-09-01T16:44:27.453Z,9.65
2022-09-01T16:47:44.272Z,9.80
2022-09-01T16:51:02.318Z,8.70
2022-09-01T16:54:18.024Z,8.88
2022-09-01T16:57:39.695Z,8.65
2022-09-01T17:00:38.995Z,8.95
2022-09-01T17:03:43.196Z,8.88
2022-09-01T17:06:37.340Z,8.57
2022-09-01T17:09:37.270Z,9.65
2022-09-01T17:12:34.899Z,8.38
2022-09-01T17:15:39.322Z,8.68
2022-09-01T17:18:45.151Z,7.93
2022-09-01T17:21:53.268Z,8.07
2022-09-01T17:24:51.579Z,9.65
2022-09-01T17:28:06.033Z,8.30
2022-09-01T17:31:08.191Z,9.13
2022-09-01T17:34:14.919Z,9.18
2022-09-01T17:37:30.245Z,10.98
2022-09-01T17:40:36.385Z,11.05
2022-09-01T17:43:21.855Z,10.45
2022-09-01T17:46:21.059Z,9.95
2022-09-01T17:49:17.951Z,11.80
2022-09-01T17:52:39.302Z,12.07
2022-09-01T17:55:38.046Z,11.45
2022-09-01T17:58:57.703Z,11.85
2022-09-01T18:01:51.305Z,11.27
2022-09-01T18:05:00.111Z,12.35
2022-09-01T18:07:53.088Z,12.27
2022-09-01T18:10:59.400Z,12.38
2022-09-01T18:13:59.529Z,12.95
2022-09-01T18:17:29.231Z,13.40
2022-09-01T18:20:25.208Z,13.55
2022-09-01T18:23:27.526Z,13.60
2022-09-01T18:26:35.407Z,12.95
2022-09-01T18:29:29.562Z,12.85
2022-09-01T18:32:42.705Z,10.77
2022-09-01T18:35:40.370Z,12.15
2022-09-01T18:38:43.927Z,12.18
2022-09-01T18:42:03.248Z,12.95
2022-09-01T18:45:13.791Z,13.27
2022-09-01T18:48:14.285Z,13.85
2022-09-01T18:51:20.712Z,14.95
2022-09-01T18:54:15.262Z,14.40
2022-09-01T18:57:14.977Z,13.77
2022-09-01T19:00:30.628Z,14.15
2022-09-01T19:03:33.362Z,14.77
2022-09-01T19:06:20.260Z,16.27
2022-09-01T19:09:07.672Z,16.45
2022-09-01T19:12:23.040Z,15.02
2022-09-01T19:15:31.190Z,14.93
2022-09-01T19:18:32.267Z,14.07
2022-09-01T19:21:39.991Z,14.52
2022-09-01T19:24:48.695Z,14.00
2022-09-01T19:27:40.225Z,14.57
2022-09-01T19:30:22.428Z,14.48
2022-09-01T19:33:14.230Z,15.57
2022-09-01T19:35:59.764Z,15.18
2022-09-01T19:38:48.261Z,15.02
2022-09-01T19:41:34.810Z,14.85
2022-09-01T19:44:28.261Z,16.00
2022-09-01T19:47:26.067Z,14.98
2022-09-01T19:50:29.259Z,15.07
2022-09-01T19:53:39.449Z,14.27
2022-09-01T19:56:49.600Z,15.18
2022-09-01T20:00:08.289Z,14.60
2022-09-01T20:02:59.189Z,13.15
2022-09-01T20:05:56.377Z,13.10
2022-09-01T20:08:41.257Z,14.73
2022-09-01T20:11:45.018Z,13.35
2022-09-01T20:15:11.267Z,14.23
2022-09-01T20:18:06.300Z,14.15
2022-09-01T20:20:55.484Z,14.75
2022-09-01T20:24:10.911Z,15.23
2022-09-01T20:27:21.227Z,12.65
2022-09-01T20:30:21.089Z,14.38
2022-09-01T20:33:32.620Z,13.60
2022-09-01T20:36:50.178Z,14.00
2022-09-01T20:40:06.361Z,13.23
2022-09-01T20:43:07.174Z,13.68
2022-09-01T20:45:49.613Z,12.63
2022-09-01T20:48:39.265Z,12.63
2022-09-01T20:51:40.914Z,11.60
2022-09-01T20:54:41.141Z,12.05
2022-09-01T20:58:00.107Z,10.65
2022-09-01T21:01:03.935Z,11.48
2022-09-01T21:04:09.527Z,11.13
2022-09-01T21:07:01.891Z,11.48
2022-09-01T21:10:25.011Z,11.05
2022-09-01T21:13:44.982Z,10.60
2022-09-01T21:17:06.095Z,10.43
2022-09-01T21:20:03.234Z,11.05
2022-09-01T21:22:51.844Z,9.68
2022-09-01T21:25:33.277Z,10.88
2022-09-01T21:28:27.237Z,10.68
2022-09-01T21:31:09.950Z,10.07
2022-09-01T21:34:00.001Z,9.57
2022-09-01T21:36:42.574Z,9.95
2022-09-01T21:39:31.125Z,9.68
2022-09-01T21:42:15.188Z,9.82
2022-09-01T21:45:06.231Z,10.10
2022-09-01T21:47:49.324Z,9.88
2022-09-01T21:50:37.990Z,10.25
2022-09-01T21:53:21.355Z,10.50
2022-09-01T21:56:09.998Z,10.30
2022-09-01T21:58:52.257Z,8.98
2022-09-01T22:01:49.889Z,9.98
2022-09-01T22:04:38.157Z,9.45
2022-09-01T22:07:24.036Z,9.43
2022-09-01T22:10:11.154Z,12.25
2022-09-01T22:13:02.268Z,9.18
2022-09-01T22:15:53.572Z,10.18
2022-09-01T22:18:35.017Z,9.85
2022-09-01T22:21:23.920Z,9.60
2022-09-01T22:24:12.894Z,10.05
2022-09-01T22:27:07.928Z,10.18
2022-09-01T22:29:56.996Z,9.77
2022-09-01T22:32:40.710Z,9.77
2022-09-01T22:35:31.182Z,10.25
2022-09-01T22:38:20.140Z,9.25
2022-09-01T22:41:05.360Z,10.18
2022-09-01T22:43:54.901Z,10.32
2022-09-01T22:46:37.272Z,10.43
2022-09-01T22:49:26.237Z,9.85
2022-09-01T22:52:09.251Z,10.73
2022-09-01T22:54:58.240Z,10.40
2022-09-01T22:57:42.149Z,11.48
2022-09-01T23:00:31.912Z,10.48
2022-09-01T23:03:27.183Z,12.88
2022-09-01T23:06:25.291Z,10.57
2022-09-01T23:09:11.511Z,10.38
2022-09-01T23:11:59.889Z,11.40
2022-09-01T23:14:41.426Z,10.50
2022-09-01T23:17:30.325Z,11.23
2022-09-01T23:20:15.551Z,11.38
2022-09-01T23:23:03.978Z,11.60
2022-09-01T23:25:52.888Z,11.98
2022-09-01T23:28:43.141Z,12.32
2022-09-01T23:31:36.025Z,11.85
2022-09-01T23:34:25.228Z,12.35
2022-09-01T23:37:08.310Z,11.68
2022-09-01T23:39:56.983Z,11.20
2022-09-01T23:42:46.238Z,11.60
2022-09-01T23:45:37.077Z,11.18
2022-09-01T23:48:20.546Z,10.98
2022-09-01T23:51:16.288Z,11.38
2022-09-01T23:53:59.498Z,11.07
2022-09-01T23:56:49.236Z,10.45
2022-09-01T23:59:31.530Z,10.82
